Time;durP1;ratioP1;P1;durP2;ratioP2;P2;SDS_P1;SDS_P2;PMS_P1;PMS_P2;Temp;Humidity;BMP_temperature;BMP_pressure;BME280_temperature;BME280_humidity;BME280_pressure;Samples;Min_cycle;Max_cycle;Signal;HPM_P1;HPM_P2
2020/12/17 00:01:55;;;;;;;5.50;5.00;;;15.70;68.30;;;;;;5075681;28;20564;-57
2020/12/17 00:04:22;;;;;;;5.47;5.00;;;15.80;68.20;;;;;;5076885;28;20473;-56
2020/12/17 00:06:49;;;;;;;5.37;4.87;;;15.80;68.20;;;;;;5076934;28;20473;-57
2020/12/17 00:09:17;;;;;;;6.10;5.60;;;15.70;68.00;;;;;;5077038;28;20444;-58
2020/12/17 00:11:44;;;;;;;5.97;5.37;;;15.80;68.10;;;;;;5065928;28;20442;-58
2020/12/17 00:14:11;;;;;;;7.10;5.60;;;15.70;68.10;;;;;;5056326;28;20438;-57
2020/12/17 00:16:37;;;;;;;5.83;5.33;;;15.80;68.10;;;;;;5056910;28;20525;-57
2020/12/17 00:19:05;;;;;;;5.73;5.20;;;15.80;68.00;;;;;;5056327;28;20525;-58
2020/12/17 00:21:32;;;;;;;6.03;5.43;;;15.70;67.90;;;;;;5073738;28;20484;-58
2020/12/17 00:23:59;;;;;;;6.07;5.47;;;15.80;68.10;;;;;;5075341;28;20503;-52
2020/12/17 00:26:26;;;;;;;6.27;5.30;;;15.80;68.00;;;;;;5071395;28;20532;-55
2020/12/17 00:28:52;;;;;;;6.00;5.40;;;15.80;68.00;;;;;;5075899;28;20566;-55
2020/12/17 00:31:20;;;;;;;7.27;5.47;;;15.80;68.00;;;;;;5075757;28;20514;-56
2020/12/17 00:33:47;;;;;;;5.73;5.20;;;15.80;67.90;;;;;;5076153;28;20537;-58
2020/12/17 00:36:17;;;;;;;6.10;5.50;;;15.70;68.00;;;;;;5076151;28;20552;-55
2020/12/17 00:38:44;;;;;;;6.13;5.53;;;15.70;68.10;;;;;;5076029;28;20552;-53
2020/12/17 00:41:12;;;;;;;5.60;5.10;;;15.70;68.10;;;;;;5075364;28;20461;-57
2020/12/17 00:43:39;;;;;;;6.00;5.40;;;15.80;68.00;;;;;;5075524;28;20480;-57
2020/12/17 00:46:08;;;;;;;5.27;4.87;;;15.80;67.80;;;;;;5075829;28;20499;-58
2020/12/17 00:48:35;;;;;;;7.70;5.50;;;15.70;67.90;;;;;;5075631;28;20441;-58
2020/12/17 00:51:03;;;;;;;6.27;5.63;;;15.70;67.80;;;;;;5075538;28;20433;-55
2020/12/17 00:53:30;;;;;;;5.20;4.80;;;15.90;67.50;;;;;;5075842;28;20442;-58
2020/12/17 00:55:59;;;;;;;6.30;5.70;;;16.00;67.30;;;;;;5075188;28;20438;-58
2020/12/17 00:58:26;;;;;;;5.37;4.97;;;16.00;67.10;;;;;;5075802;28;20560;-58
2020/12/17 01:00:53;;;;;;;5.30;4.90;;;16.00;67.00;;;;;;5075326;28;20456;-57
2020/12/17 01:03:19;;;;;;;5.80;5.30;;;16.00;67.10;;;;;;5075074;28;20477;-56
2020/12/17 01:05:46;;;;;;;6.10;5.53;;;16.00;67.10;;;;;;5074686;28;20521;-57
2020/12/17 01:08:13;;;;;;;6.00;5.40;;;16.00;67.10;;;;;;5074039;28;20457;-57
2020/12/17 01:10:41;;;;;;;5.47;5.07;;;15.90;67.00;;;;;;5071549;28;20474;-58
2020/12/17 01:13:08;;;;;;;5.57;5.07;;;15.80;67.30;;;;;;5072507;28;20538;-58
2020/12/17 01:15:34;;;;;;;5.60;5.10;;;15.80;67.80;;;;;;5071886;28;20523;-55
2020/12/17 01:18:01;;;;;;;6.00;5.40;;;15.80;67.70;;;;;;5071444;28;20470;-56
2020/12/17 01:20:28;;;;;;;5.27;4.77;;;15.80;67.60;;;;;;5073461;28;20430;-56
2020/12/17 01:22:55;;;;;;;6.13;5.53;;;15.80;67.70;;;;;;5074450;28;20448;-56
2020/12/17 01:25:22;;;;;;;6.00;5.37;;;15.80;67.50;;;;;;5075105;28;20538;-53
2020/12/17 01:27:50;;;;;;;6.80;5.93;;;15.90;67.30;;;;;;5075158;28;20472;-56
2020/12/17 01:30:17;;;;;;;6.10;5.53;;;16.00;67.00;;;;;;5074291;28;20438;-56
2020/12/17 01:32:44;;;;;;;6.40;5.80;;;15.90;67.10;;;;;;5074747;28;20478;-59
2020/12/17 01:35:11;;;;;;;6.80;5.43;;;16.00;66.80;;;;;;5074621;28;20552;-59
2020/12/17 01:37:38;;;;;;;6.27;5.70;;;16.10;66.60;;;;;;5074960;28;20502;-59
2020/12/17 01:40:05;;;;;;;6.33;5.73;;;16.10;66.30;;;;;;5074302;28;20544;-59
2020/12/17 01:42:31;;;;;;;7.23;6.10;;;15.90;66.80;;;;;;5074665;28;20434;-59
2020/12/17 01:44:59;;;;;;;5.63;5.13;;;15.80;67.20;;;;;;5074740;28;20480;-60
2020/12/17 01:47:30;;;;;;;6.60;6.00;;;15.80;67.40;;;;;;5074756;28;20480;-59
2020/12/17 01:49:57;;;;;;;6.70;5.67;;;15.70;67.50;;;;;;5074218;28;20573;-59
2020/12/17 01:52:24;;;;;;;6.53;5.93;;;15.70;67.50;;;;;;5074682;28;20454;-59
2020/12/17 01:54:54;;;;;;;6.77;6.07;;;15.70;67.50;;;;;;5074411;28;20503;-57
2020/12/17 01:57:21;;;;;;;6.33;5.73;;;15.70;67.40;;;;;;5074391;28;20493;-57
2020/12/17 01:59:49;;;;;;;6.93;5.47;;;15.80;67.50;;;;;;5073984;28;20509;-57
2020/12/17 02:02:17;;;;;;;6.23;5.70;;;15.70;67.40;;;;;;5074641;28;20441;-58
2020/12/17 02:04:44;;;;;;;7.43;5.97;;;15.80;67.10;;;;;;5074040;28;20469;-58
2020/12/17 02:07:10;;;;;;;6.50;5.90;;;15.90;66.90;;;;;;5074376;28;20469;-58
2020/12/17 02:09:37;;;;;;;6.20;5.70;;;15.90;66.80;;;;;;5074260;28;20462;-58
2020/12/17 02:12:04;;;;;;;6.33;5.73;;;16.00;66.70;;;;;;5074924;28;20533;-58
2020/12/17 02:14:31;;;;;;;6.80;5.80;;;16.10;66.40;;;;;;5073415;28;20527;-59
2020/12/17 02:16:58;;;;;;;6.00;5.40;;;16.10;66.10;;;;;;5073819;28;20484;-56
2020/12/17 02:19:25;;;;;;;7.50;6.20;;;15.90;66.60;;;;;;5062115;28;20589;-57
2020/12/17 02:21:52;;;;;;;6.10;5.53;;;15.80;67.30;;;;;;5070393;28;20496;-57
2020/12/17 02:24:21;;;;;;;6.50;5.90;;;15.70;67.40;;;;;;5072922;28;20441;-58
2020/12/17 02:26:48;;;;;;;7.00;5.57;;;15.70;67.40;;;;;;5074116;28;20552;-57
2020/12/17 02:29:15;;;;;;;6.53;5.93;;;15.70;67.20;;;;;;5074163;28;20533;-56
2020/12/17 02:31:41;;;;;;;7.37;6.20;;;15.80;67.30;;;;;;5073743;28;20513;-52
2020/12/17 02:34:08;;;;;;;6.50;5.80;;;15.70;67.30;;;;;;5074035;28;20465;-56
2020/12/17 02:36:35;;;;;;;6.87;6.20;;;15.70;67.50;;;;;;5073845;28;20462;-58
2020/12/17 02:39:02;;;;;;;6.30;5.70;;;15.70;67.50;;;;;;5073720;28;20466;-58
2020/12/17 02:41:30;;;;;;;6.83;6.20;;;15.70;67.30;;;;;;5073023;28;20503;-56
2020/12/17 02:43:57;;;;;;;7.27;5.60;;;15.70;67.30;;;;;;5073861;28;20537;-56
2020/12/17 02:46:23;;;;;;;9.30;5.80;;;15.70;67.40;;;;;;5073286;28;20476;-56
2020/12/17 02:48:50;;;;;;;7.77;6.37;;;15.70;67.40;;;;;;5074142;28;20466;-57
2020/12/17 02:51:17;;;;;;;6.50;5.90;;;15.70;67.40;;;;;;5072908;28;20441;-53
2020/12/17 02:53:44;;;;;;;6.47;5.77;;;15.70;67.40;;;;;;5074009;28;20438;-53
2020/12/17 02:56:12;;;;;;;7.30;5.53;;;15.60;67.60;;;;;;5073572;28;20434;-56
2020/12/17 02:58:40;;;;;;;6.07;5.47;;;15.70;67.40;;;;;;5072771;28;20530;-57
2020/12/17 03:01:07;;;;;;;7.53;6.60;;;15.60;67.80;;;;;;5053207;28;20439;-57
2020/12/17 03:03:34;;;;;;;6.23;5.63;;;15.60;67.70;;;;;;5066201;28;20429;-57
2020/12/17 03:06:00;;;;;;;6.87;5.70;;;15.60;67.90;;;;;;5073119;28;20468;-56
2020/12/17 03:08:27;;;;;;;6.80;6.10;;;15.60;67.80;;;;;;5066070;28;20461;-55
2020/12/17 03:10:54;;;;;;;6.53;5.90;;;15.60;67.70;;;;;;5068362;28;20511;-58
2020/12/17 03:13:21;;;;;;;6.43;5.10;;;15.60;67.60;;;;;;5053339;28;20478;-56
2020/12/17 03:15:49;;;;;;;6.40;5.80;;;15.60;67.60;;;;;;5062592;28;20525;-56
2020/12/17 03:18:16;;;;;;;6.20;5.30;;;15.60;67.80;;;;;;5073292;28;20477;-55
2020/12/17 03:20:43;;;;;;;5.27;4.87;;;15.60;67.80;;;;;;5072750;28;20520;-57
2020/12/17 03:23:10;;;;;;;5.80;5.30;;;15.70;67.80;;;;;;5073545;28;20525;-57
2020/12/17 03:25:37;;;;;;;6.20;5.60;;;15.70;67.70;;;;;;5057508;28;20453;-57
2020/12/17 03:28:03;;;;;;;5.53;5.03;;;15.70;67.50;;;;;;5073516;28;20520;-57
2020/12/17 03:30:31;;;;;;;7.33;5.20;;;15.70;67.50;;;;;;5072547;28;20468;-58
2020/12/17 03:32:59;;;;;;;5.70;5.20;;;15.70;67.70;;;;;;5073202;28;20466;-58
2020/12/17 03:35:25;;;;;;;5.50;4.70;;;15.70;67.60;;;;;;5073029;28;20466;-58
2020/12/17 03:37:57;;;;;;;5.43;4.93;;;15.60;67.70;;;;;;5073186;28;20449;-58
2020/12/17 03:40:25;;;;;;;5.60;5.10;;;15.70;67.70;;;;;;5072710;28;20495;-57
2020/12/17 03:42:52;;;;;;;5.73;5.23;;;15.70;67.60;;;;;;5072441;28;20430;-57
2020/12/17 03:45:19;;;;;;;9.23;5.87;;;15.60;67.90;;;;;;5072847;28;20462;-56
2020/12/17 03:47:46;;;;;;;6.50;5.73;;;15.60;67.80;;;;;;5072911;28;20491;-56
2020/12/17 03:50:14;;;;;;;4.90;4.50;;;15.70;67.80;;;;;;5072588;28;20433;-55
2020/12/17 03:52:41;;;;;;;6.73;5.57;;;15.70;67.60;;;;;;5072835;28;20477;-58
2020/12/17 03:55:08;;;;;;;5.47;5.03;;;15.60;67.80;;;;;;5073195;28;20512;-57
2020/12/17 03:57:35;;;;;;;6.67;5.40;;;15.60;67.90;;;;;;5074609;28;20433;-57
2020/12/17 04:00:02;;;;;;;5.93;5.33;;;15.60;67.90;;;;;;5076182;28;20473;-57
2020/12/17 04:02:28;;;;;;;5.97;5.40;;;15.60;67.90;;;;;;5076403;28;20521;-57
2020/12/17 04:04:55;;;;;;;5.93;5.40;;;15.60;68.00;;;;;;5076711;28;20484;-54
2020/12/17 04:07:23;;;;;;;6.57;5.13;;;15.70;67.90;;;;;;5071458;28;20487;-54
2020/12/17 04:09:50;;;;;;;6.03;5.43;;;15.70;67.80;;;;;;5071468;28;20553;-58
2020/12/17 04:12:17;;;;;;;5.87;5.27;;;15.60;67.90;;;;;;5056321;28;20506;-56
2020/12/17 04:14:44;;;;;;;5.60;5.10;;;15.60;67.90;;;;;;5056436;28;20473;-58
2020/12/17 04:17:11;;;;;;;5.67;5.17;;;15.60;67.90;;;;;;5056123;28;20443;-57
2020/12/17 04:19:38;;;;;;;5.63;5.13;;;15.60;68.70;;;;;;5067900;28;20472;-58
2020/12/17 04:22:05;;;;;;;4.93;4.57;;;15.60;68.00;;;;;;5076219;28;20512;-58
2020/12/17 04:24:32;;;;;;;6.40;5.50;;;15.60;68.00;;;;;;5076471;28;20445;-56
2020/12/17 04:26:59;;;;;;;6.03;5.40;;;15.60;67.90;;;;;;5076027;28;20469;-57
2020/12/17 04:29:26;;;;;;;5.50;5.00;;;15.50;68.00;;;;;;5075924;28;20525;-57
2020/12/17 04:31:53;;;;;;;5.80;5.27;;;15.60;68.10;;;;;;5075573;28;20477;-54
2020/12/17 04:34:20;;;;;;;5.77;5.07;;;15.50;68.10;;;;;;5075946;28;20489;-57
2020/12/17 04:36:47;;;;;;;5.60;5.10;;;15.60;68.20;;;;;;5075956;28;20438;-55
2020/12/17 04:39:20;;;;;;;5.63;5.13;;;15.60;68.10;;;;;;5076048;28;20508;-54
2020/12/17 04:41:48;;;;;;;7.63;6.00;;;15.60;67.90;;;;;;5075227;28;20441;-56
2020/12/17 04:44:16;;;;;;;6.00;5.40;;;15.70;67.80;;;;;;5075679;28;20476;-56
2020/12/17 04:46:43;;;;;;;5.80;5.20;;;15.70;67.80;;;;;;5075925;28;20442;-57
2020/12/17 04:49:10;;;;;;;7.00;5.80;;;15.70;67.80;;;;;;5075858;28;20508;-56
2020/12/17 04:51:37;;;;;;;6.87;5.50;;;15.60;68.00;;;;;;5075252;28;20571;-56
2020/12/17 04:54:04;;;;;;;6.37;5.73;;;15.60;68.10;;;;;;5075533;28;20438;-53
2020/12/17 04:56:37;;;;;;;5.07;4.67;;;15.60;68.10;;;;;;5075661;28;20438;-58
2020/12/17 04:59:05;;;;;;;6.90;5.67;;;15.60;68.00;;;;;;5075705;28;20473;-57
2020/12/17 05:01:33;;;;;;;5.80;5.30;;;15.60;68.30;;;;;;5074942;28;20438;-58
2020/12/17 05:04:00;;;;;;;5.87;5.30;;;15.60;68.00;;;;;;5075527;28;20462;-58
2020/12/17 05:06:26;;;;;;;7.47;5.60;;;15.60;68.20;;;;;;5075424;28;20459;-59
2020/12/17 05:08:54;;;;;;;6.37;5.53;;;15.50;68.20;;;;;;5074443;28;20509;-57
2020/12/17 05:11:23;;;;;;;6.13;5.53;;;15.50;68.30;;;;;;5065828;28;20458;-58
2020/12/17 05:13:50;;;;;;;6.50;5.77;;;15.50;68.40;;;;;;5074391;28;20430;-58
2020/12/17 05:16:18;;;;;;;6.03;5.40;;;15.50;68.50;;;;;;5073840;28;20434;-55
2020/12/17 05:18:46;;;;;;;6.00;5.40;;;15.50;68.30;;;;;;5070942;28;20468;-56
2020/12/17 05:21:14;;;;;;;6.00;5.40;;;15.60;68.10;;;;;;5072130;28;20438;-56
2020/12/17 05:23:44;;;;;;;6.50;5.43;;;15.70;68.10;;;;;;5073333;28;20430;-55
2020/12/17 05:26:11;;;;;;;5.97;5.37;;;15.80;67.80;;;;;;5075305;28;20441;-53
2020/12/17 05:28:38;;;;;;;7.47;5.60;;;15.70;67.80;;;;;;5074362;28;20441;-55
2020/12/17 05:31:05;;;;;;;6.57;5.90;;;15.70;68.00;;;;;;5074203;28;20442;-54
2020/12/17 05:33:33;;;;;;;7.83;5.17;;;15.60;67.90;;;;;;5074575;28;20512;-54
2020/12/17 05:36:00;;;;;;;6.20;5.23;;;15.70;67.80;;;;;;5074963;28;20444;-56
2020/12/17 05:38:27;;;;;;;6.20;5.60;;;15.80;67.60;;;;;;5073320;28;20453;-52
2020/12/17 05:40:53;;;;;;;6.20;5.60;;;15.70;67.80;;;;;;5073788;28;20441;-55
2020/12/17 05:43:21;;;;;;;7.00;5.93;;;15.60;68.00;;;;;;5074576;28;20442;-56
2020/12/17 05:45:48;;;;;;;6.17;5.53;;;15.70;67.60;;;;;;5074565;28;20499;-55
2020/12/17 05:48:16;;;;;;;6.70;5.97;;;15.80;67.60;;;;;;5074452;28;20434;-52
2020/12/17 05:51:02;;;;;;;7.03;5.73;;;15.90;67.40;;;;;;5074016;28;20503;-52
2020/12/17 05:53:29;;;;;;;6.30;5.70;;;15.80;67.50;;;;;;5074663;28;20444;-54
2020/12/17 05:56:01;;;;;;;6.53;5.90;;;15.90;67.30;;;;;;5074637;28;20441;-54
2020/12/17 05:58:36;;;;;;;7.27;5.73;;;15.90;67.00;;;;;;5074541;28;20441;-55
2020/12/17 06:01:11;;;;;;;5.97;5.47;;;16.00;67.20;;;;;;5074187;28;20456;-56
2020/12/17 06:03:38;;;;;;;8.40;6.50;;;15.90;67.30;;;;;;5074432;28;20445;-55
2020/12/17 06:06:07;;;;;;;7.30;6.10;;;15.90;67.30;;;;;;5074421;28;20430;-53
2020/12/17 06:08:36;;;;;;;6.77;6.07;;;15.80;67.40;;;;;;5074646;28;20533;-56
2020/12/17 06:11:04;;;;;;;6.60;5.63;;;15.70;67.80;;;;;;5073529;28;20460;-55
2020/12/17 06:13:33;;;;;;;6.20;5.40;;;15.60;68.00;;;;;;5074051;28;20426;-55
2020/12/17 06:16:02;;;;;;;6.13;5.53;;;15.60;68.00;;;;;;5060782;28;20439;-57
2020/12/17 06:18:32;;;;;;;6.40;5.80;;;15.60;68.20;;;;;;5054327;28;20514;-56
2020/12/17 06:20:58;;;;;;;5.87;5.27;;;15.60;68.10;;;;;;5052552;28;20435;-56
2020/12/17 06:23:26;;;;;;;7.13;6.10;;;15.60;68.00;;;;;;5065905;28;20496;-54
2020/12/17 06:25:53;;;;;;;6.50;6.00;;;15.60;68.10;;;;;;5074154;28;20441;-55
2020/12/17 06:28:36;;;;;;;8.07;6.27;;;15.60;68.30;;;;;;5073798;28;20437;-57
2020/12/17 06:31:03;;;;;;;7.83;6.53;;;15.50;68.30;;;;;;5073013;28;20453;-56
2020/12/17 06:33:30;;;;;;;6.40;5.80;;;15.60;68.30;;;;;;5073758;28;20465;-56
2020/12/17 06:35:58;;;;;;;6.43;5.83;;;15.50;68.30;;;;;;5074221;28;20515;-56
2020/12/17 06:38:27;;;;;;;7.03;6.20;;;15.50;68.50;;;;;;5074251;28;20473;-56
2020/12/17 06:40:54;;;;;;;6.30;5.70;;;15.50;68.50;;;;;;5072843;28;20497;-57
2020/12/17 06:43:30;;;;;;;6.30;5.70;;;15.50;69.20;;;;;;5073743;28;20488;-55
2020/12/17 06:45:58;;;;;;;7.10;6.40;;;15.50;69.00;;;;;;5074005;28;20473;-56
2020/12/17 06:48:32;;;;;;;7.50;6.40;;;15.50;68.50;;;;;;5074017;28;20503;-56
2020/12/17 06:50:59;;;;;;;7.67;6.50;;;15.50;68.70;;;;;;5053625;28;20406;-57
2020/12/17 06:53:39;;;;;;;6.63;5.90;;;15.50;68.60;;;;;;5053509;28;20434;-57
2020/12/17 06:56:06;;;;;;;6.50;5.87;;;15.50;68.70;;;;;;5053833;28;20434;-56
2020/12/17 06:58:33;;;;;;;7.40;6.70;;;15.50;68.60;;;;;;5063671;28;20498;-57
2020/12/17 07:01:00;;;;;;;6.57;5.93;;;15.50;68.50;;;;;;5073095;28;20474;-57
2020/12/17 07:03:43;;;;;;;8.47;6.93;;;15.50;68.50;;;;;;5073692;28;20438;-56
2020/12/17 07:06:12;;;;;;;6.50;5.90;;;15.50;68.70;;;;;;5073518;28;20434;-56
2020/12/17 07:08:40;;;;;;;9.60;6.40;;;15.50;68.90;;;;;;5066703;28;20532;-57
2020/12/17 07:11:07;;;;;;;7.00;6.00;;;15.50;68.70;;;;;;5072810;28;20536;-58
2020/12/17 07:13:40;;;;;;;5.80;5.30;;;15.50;68.90;;;;;;5073183;28;20440;-57
2020/12/17 07:16:07;;;;;;;6.03;5.43;;;15.50;68.70;;;;;;5073193;28;20493;-57
2020/12/17 07:18:34;;;;;;;6.00;5.40;;;15.50;68.70;;;;;;5073631;28;20445;-57
2020/12/17 07:21:04;;;;;;;7.43;5.93;;;15.50;68.70;;;;;;5073183;28;20473;-57
2020/12/17 07:23:32;;;;;;;6.60;5.83;;;15.50;68.80;;;;;;5073172;28;20434;-58
2020/12/17 07:26:06;;;;;;;6.87;6.07;;;15.50;68.90;;;;;;5055735;28;20489;-56
2020/12/17 07:28:33;;;;;;;6.43;5.73;;;15.40;69.00;;;;;;5056340;28;20513;-58
2020/12/17 07:31:00;;;;;;;8.87;6.53;;;15.40;69.10;;;;;;5072901;28;20498;-58
2020/12/17 07:33:43;;;;;;;7.23;5.80;;;15.40;69.10;;;;;;5075714;28;20516;-58
2020/12/17 07:36:11;;;;;;;6.47;5.73;;;15.50;69.00;;;;;;5077053;28;20442;-54
2020/12/17 07:38:39;;;;;;;6.70;6.07;;;15.50;68.80;;;;;;5077057;28;20510;-58
2020/12/17 07:41:27;;;;;;;6.57;5.87;;;15.50;68.90;;;;;;5076688;28;20563;-57
2020/12/17 07:43:53;;;;;;;6.50;5.50;;;15.50;69.00;;;;;;5057891;28;20438;-57
2020/12/17 07:46:37;;;;;;;6.03;5.43;;;15.40;69.10;;;;;;5057212;28;20475;-58
2020/12/17 07:49:21;;;;;;;6.70;6.00;;;15.40;69.40;;;;;;5057236;28;20439;-56
2020/12/17 07:51:47;;;;;;;6.20;5.67;;;15.50;69.20;;;;;;5067348;28;20477;-57
2020/12/17 07:54:19;;;;;;;9.57;6.43;;;15.50;69.20;;;;;;5077117;28;20430;-58
2020/12/17 07:56:47;;;;;;;6.53;5.90;;;15.40;69.40;;;;;;5077074;28;20545;-58
2020/12/17 07:59:14;;;;;;;6.60;6.00;;;15.40;69.50;;;;;;5077199;28;20576;-58
2020/12/17 08:01:41;;;;;;;6.20;5.60;;;15.50;69.10;;;;;;5068418;28;20509;-57
2020/12/17 08:04:08;;;;;;;5.73;5.10;;;15.50;69.20;;;;;;5076294;28;20441;-57
2020/12/17 08:06:35;;;;;;;7.10;6.10;;;15.40;69.30;;;;;;5076376;28;20476;-58
2020/12/17 08:09:03;;;;;;;7.17;5.53;;;15.50;69.30;;;;;;5076380;28;20461;-57
2020/12/17 08:11:41;;;;;;;7.70;5.63;;;15.50;69.30;;;;;;5067221;28;20442;-52
2020/12/17 08:14:09;;;;;;;7.80;6.10;;;15.40;69.40;;;;;;5075347;28;20433;-57
2020/12/17 08:16:36;;;;;;;6.00;5.47;;;15.50;69.50;;;;;;5076089;28;20491;-56
2020/12/17 08:19:03;;;;;;;8.07;6.00;;;15.50;69.60;;;;;;5075982;28;20533;-56
2020/12/17 08:21:30;;;;;;;8.37;5.73;;;15.50;69.60;;;;;;5075756;28;20475;-57
2020/12/17 08:23:57;;;;;;;7.10;5.80;;;15.50;69.50;;;;;;5070958;28;20529;-55
2020/12/17 08:26:24;;;;;;;6.47;5.83;;;15.50;69.50;;;;;;5076117;28;20434;-56
2020/12/17 08:28:51;;;;;;;8.03;6.07;;;15.40;69.50;;;;;;5076296;28;20441;-58
2020/12/17 08:31:19;;;;;;;6.50;5.40;;;15.50;69.60;;;;;;5075402;28;20434;-52
2020/12/17 08:33:47;;;;;;;6.27;5.63;;;15.50;69.50;;;;;;5076479;28;20474;-56
2020/12/17 08:36:16;;;;;;;5.80;5.00;;;15.60;69.50;;;;;;5075606;28;20507;-61
2020/12/17 08:38:56;;;;;;;5.90;5.40;;;15.50;69.60;;;;;;5075868;28;20438;-55
2020/12/17 08:41:26;;;;;;;8.77;5.70;;;15.50;69.70;;;;;;5075542;28;20425;-58
2020/12/17 08:43:53;;;;;;;6.30;5.40;;;15.50;69.90;;;;;;5066076;28;20494;-56
2020/12/17 08:46:23;;;;;;;6.10;5.27;;;15.40;69.90;;;;;;5055807;28;20538;-58
2020/12/17 08:48:50;;;;;;;5.67;5.17;;;15.40;69.90;;;;;;5055791;28;20454;-58
2020/12/17 08:51:17;;;;;;;6.50;5.13;;;15.50;69.80;;;;;;5055223;28;20434;-58
2020/12/17 08:53:45;;;;;;;5.27;4.83;;;15.50;69.80;;;;;;5067146;28;20486;-57
2020/12/17 08:56:14;;;;;;;5.53;5.03;;;15.50;70.00;;;;;;5075465;28;20442;-58
2020/12/17 08:58:52;;;;;;;5.30;4.80;;;15.40;70.20;;;;;;5076141;28;20550;-55
2020/12/17 09:01:24;;;;;;;6.43;5.37;;;15.60;69.90;;;;;;5073598;28;20483;-59
2020/12/17 09:03:52;;;;;;;5.73;4.47;;;15.70;69.40;;;;;;5055695;28;20439;-58
2020/12/17 09:06:26;;;;;;;4.93;4.50;;;15.80;69.20;;;;;;5055607;28;20457;-57
2020/12/17 09:08:54;;;;;;;5.97;4.97;;;15.80;69.10;;;;;;5055372;28;20536;-57
2020/12/17 09:11:31;;;;;;;5.33;4.43;;;15.90;68.90;;;;;;5065970;28;20430;-60
2020/12/17 09:13:59;;;;;;;7.03;4.63;;;15.90;69.00;;;;;;5075279;28;20532;-60
2020/12/17 09:16:29;;;;;;;7.90;4.10;;;15.80;69.10;;;;;;5058616;28;20438;-60
2020/12/17 09:18:56;;;;;;;4.43;4.03;;;15.70;69.60;;;;;;5064660;28;20509;-58
2020/12/17 09:21:23;;;;;;;4.47;4.17;;;15.70;69.80;;;;;;5071214;28;20542;-59
2020/12/17 09:23:56;;;;;;;4.20;3.80;;;15.70;70.00;;;;;;5069793;28;20480;-59
2020/12/17 09:26:23;;;;;;;6.50;4.83;;;15.70;70.00;;;;;;5074354;28;20536;-58
2020/12/17 09:28:52;;;;;;;5.43;4.33;;;15.70;69.90;;;;;;5074917;28;20468;-58
2020/12/17 09:31:20;;;;;;;5.47;4.07;;;15.70;70.00;;;;;;5074355;28;20441;-59
2020/12/17 09:33:48;;;;;;;5.10;4.63;;;15.70;70.10;;;;;;5074839;28;20567;-58
2020/12/17 09:36:16;;;;;;;4.43;4.03;;;15.70;70.00;;;;;;5074869;28;20430;-59
2020/12/17 09:38:42;;;;;;;4.23;3.93;;;15.70;70.20;;;;;;5073990;28;20457;-58
2020/12/17 09:41:10;;;;;;;4.70;3.83;;;15.70;70.20;;;;;;5071006;28;20481;-59
2020/12/17 09:43:47;;;;;;;6.00;4.10;;;15.70;70.10;;;;;;5071239;28;20484;-56
2020/12/17 09:46:18;;;;;;;5.27;4.30;;;15.70;70.00;;;;;;5071335;28;20433;-57
2020/12/17 09:48:45;;;;;;;3.90;3.60;;;15.70;70.10;;;;;;5073670;28;20520;-59
2020/12/17 09:51:13;;;;;;;4.43;4.10;;;15.70;70.00;;;;;;5070658;28;20442;-57
2020/12/17 09:53:41;;;;;;;5.57;3.40;;;15.80;70.20;;;;;;5073576;28;20461;-59
2020/12/17 09:56:08;;;;;;;4.13;3.77;;;15.70;70.20;;;;;;5071269;28;20438;-59
2020/12/17 09:58:36;;;;;;;4.20;3.57;;;15.80;70.20;;;;;;5073373;28;20429;-59
2020/12/17 10:01:03;;;;;;;3.87;3.57;;;15.80;70.00;;;;;;5072243;28;20491;-56
2020/12/17 10:03:30;;;;;;;6.10;4.10;;;15.80;70.20;;;;;;5072832;28;20465;-59
2020/12/17 10:05:57;;;;;;;3.80;3.60;;;15.70;70.40;;;;;;5073197;28;20438;-58
2020/12/17 10:08:25;;;;;;;4.47;4.10;;;15.90;70.20;;;;;;5073067;28;20445;-56
2020/12/17 10:10:52;;;;;;;3.70;3.43;;;15.90;70.20;;;;;;5070234;28;20513;-60
2020/12/17 10:13:19;;;;;;;4.07;3.67;;;15.90;70.10;;;;;;5072910;28;20484;-56
2020/12/17 10:15:45;;;;;;;7.47;4.50;;;15.90;70.10;;;;;;5073380;28;20430;-59
2020/12/17 10:18:12;;;;;;;4.43;3.63;;;15.80;70.20;;;;;;5073260;28;20440;-59
2020/12/17 10:20:39;;;;;;;4.00;3.70;;;15.90;70.20;;;;;;5070330;28;20497;-54
2020/12/17 10:23:06;;;;;;;4.20;3.90;;;16.00;70.10;;;;;;5072273;28;20497;-56
2020/12/17 10:25:34;;;;;;;3.80;3.50;;;16.00;70.00;;;;;;5073204;28;20548;-51
2020/12/17 10:28:01;;;;;;;4.07;3.57;;;16.00;69.90;;;;;;5073969;28;20437;-51
2020/12/17 10:30:28;;;;;;;3.50;3.30;;;16.10;69.70;;;;;;5073034;28;20488;-55
2020/12/17 10:32:56;;;;;;;3.47;3.17;;;16.20;69.70;;;;;;5073992;28;20658;-58
2020/12/17 10:35:23;;;;;;;5.23;3.70;;;16.30;69.40;;;;;;5073834;28;20434;-52
2020/12/17 10:37:50;;;;;;;4.47;3.53;;;16.40;69.30;;;;;;5072588;28;20465;-59
2020/12/17 10:40:19;;;;;;;3.93;3.40;;;16.60;69.00;;;;;;5068442;28;20531;-58
2020/12/17 10:42:58;;;;;;;3.80;3.50;;;16.60;68.90;;;;;;5073956;28;20460;-58
2020/12/17 10:45:25;;;;;;;3.17;2.97;;;16.60;69.00;;;;;;5073840;28;20532;-58
2020/12/17 10:47:52;;;;;;;4.10;3.50;;;16.70;68.90;;;;;;5054949;28;20494;-58
2020/12/17 10:50:19;;;;;;;3.03;2.70;;;16.80;68.70;;;;;;5053417;28;20437;-57
2020/12/17 10:52:46;;;;;;;3.40;3.00;;;16.90;68.30;;;;;;5057224;28;20450;-58
2020/12/17 10:55:12;;;;;;;3.10;2.90;;;17.30;68.00;;;;;;5071758;28;20475;-59
2020/12/17 10:57:39;;;;;;;4.43;3.20;;;17.50;67.20;;;;;;5060715;28;20470;-50
2020/12/17 11:00:07;;;;;;;5.23;3.73;;;17.80;73.90;;;;;;5053039;28;20466;-52
2020/12/17 11:02:34;;;;;;;6.60;4.10;;;17.50;71.90;;;;;;5072830;28;20569;-51
2020/12/17 11:05:01;;;;;;;4.80;4.00;;;17.00;72.60;;;;;;5067046;28;20538;-50
2020/12/17 11:07:28;;;;;;;10.53;4.90;;;16.70;72.60;;;;;;5074430;28;20479;-48
2020/12/17 11:09:55;;;;;;;5.20;3.77;;;16.70;72.00;;;;;;5077217;28;20473;-53
2020/12/17 11:12:22;;;;;;;7.70;4.27;;;16.70;71.70;;;;;;5077621;28;20457;-49
2020/12/17 11:14:49;;;;;;;4.00;3.70;;;16.60;71.70;;;;;;5077470;28;20434;-49
2020/12/17 11:17:16;;;;;;;7.00;4.40;;;16.80;71.00;;;;;;5077674;28;20502;-49
2020/12/17 11:19:44;;;;;;;5.67;4.00;;;16.80;70.40;;;;;;5076058;28;20491;-48
2020/12/17 11:22:11;;;;;;;4.40;4.00;;;16.70;69.90;;;;;;5076288;28;20445;-52
2020/12/17 11:24:37;;;;;;;4.20;3.90;;;16.70;70.10;;;;;;5075884;28;20465;-50
2020/12/17 11:27:04;;;;;;;4.57;4.27;;;16.70;70.10;;;;;;5076242;28;20524;-52
2020/12/17 11:29:31;;;;;;;4.20;3.90;;;16.50;69.80;;;;;;5076063;28;20505;-52
2020/12/17 11:31:58;;;;;;;4.53;4.23;;;16.50;70.10;;;;;;5075166;28;20476;-49
2020/12/17 11:34:26;;;;;;;5.40;4.17;;;16.50;69.80;;;;;;5075966;28;20438;-52
2020/12/17 11:36:53;;;;;;;4.57;4.13;;;16.70;69.90;;;;;;5076141;28;20480;-52
2020/12/17 11:39:20;;;;;;;3.90;3.53;;;16.90;68.70;;;;;;5076142;28;20493;-63
2020/12/17 11:41:47;;;;;;;3.97;3.27;;;17.20;68.30;;;;;;5075112;28;20539;-49
2020/12/17 11:44:14;;;;;;;3.77;3.47;;;17.00;68.30;;;;;;5075826;28;20554;-51
2020/12/17 11:46:40;;;;;;;3.70;3.40;;;16.90;68.10;;;;;;5075694;28;20440;-52
2020/12/17 11:49:07;;;;;;;7.27;3.27;;;16.90;68.40;;;;;;5070726;28;20504;-54
2020/12/17 11:51:35;;;;;;;3.70;3.47;;;17.00;68.20;;;;;;5075135;28;20461;-53
2020/12/17 11:54:02;;;;;;;5.80;3.30;;;17.00;68.10;;;;;;5077179;28;20518;-54
2020/12/17 11:56:30;;;;;;;3.97;3.67;;;16.90;68.20;;;;;;5076737;28;20541;-55
2020/12/17 11:58:57;;;;;;;4.30;3.67;;;16.80;68.00;;;;;;5076314;28;20461;-52
2020/12/17 12:01:29;;;;;;;3.70;3.50;;;16.50;68.80;;;;;;5076051;28;20556;-54
2020/12/17 12:03:55;;;;;;;3.57;3.20;;;16.80;68.50;;;;;;5077293;28;20452;-52
2020/12/17 12:06:22;;;;;;;4.03;3.50;;;16.80;68.00;;;;;;5076741;28;20433;-55
2020/12/17 12:08:50;;;;;;;3.70;3.50;;;16.70;68.10;;;;;;5076388;28;20469;-53
2020/12/17 12:11:17;;;;;;;3.77;3.57;;;16.70;68.20;;;;;;5075912;28;20430;-54
2020/12/17 12:13:50;;;;;;;4.37;4.07;;;16.80;67.80;;;;;;5077074;28;20465;-52
2020/12/17 12:16:17;;;;;;;3.57;3.37;;;16.70;67.90;;;;;;5075916;28;20437;-53
2020/12/17 12:18:44;;;;;;;4.33;4.00;;;16.70;67.90;;;;;;5076377;28;20499;-54
2020/12/17 12:21:11;;;;;;;4.57;4.27;;;16.80;67.60;;;;;;5075750;28;20523;-55
2020/12/17 12:23:38;;;;;;;5.70;4.50;;;16.60;68.20;;;;;;5076473;28;20464;-51
2020/12/17 12:26:06;;;;;;;4.50;4.20;;;16.50;68.10;;;;;;5075816;28;20501;-53
2020/12/17 12:28:33;;;;;;;4.47;4.07;;;16.50;68.00;;;;;;5076053;28;20476;-51
2020/12/17 12:31:02;;;;;;;5.70;4.60;;;16.70;67.90;;;;;;5075905;28;20445;-49
2020/12/17 12:33:29;;;;;;;4.83;4.43;;;16.80;67.20;;;;;;5076059;28;20511;-54
2020/12/17 12:35:57;;;;;;;5.00;4.70;;;16.80;67.10;;;;;;5056623;28;20435;-52
2020/12/17 12:38:23;;;;;;;4.40;4.10;;;16.80;66.90;;;;;;5056318;28;20514;-52
2020/12/17 12:40:50;;;;;;;6.53;5.00;;;16.80;67.20;;;;;;5055611;28;20474;-54
2020/12/17 12:43:18;;;;;;;4.53;4.13;;;16.60;66.90;;;;;;5055708;28;20442;-53
2020/12/17 12:45:45;;;;;;;5.20;4.87;;;16.70;67.50;;;;;;5055943;28;20438;-53
2020/12/17 12:48:12;;;;;;;5.57;5.07;;;16.60;67.40;;;;;;5056136;28;20508;-50
2020/12/17 12:50:39;;;;;;;5.57;5.03;;;16.50;67.30;;;;;;5055415;28;20514;-56
2020/12/17 12:53:06;;;;;;;7.37;5.77;;;16.50;67.60;;;;;;5071393;28;20448;-52